Time;durP1;ratioP1;P1;durP2;ratioP2;P2;SDS_P1;SDS_P2;PMS_P1;PMS_P2;Temp;Humidity;BMP_temperature;BMP_pressure;BME280_temperature;BME280_humidity;BME280_pressure;Samples;Min_cycle;Max_cycle;Signal;HPM_P1;HPM_P2
2023/04/25 00:01:42;;;;;;;6.68;5.28;;;;;;;4.87;100.00;97706.78;4183723;28;20079;-72
2023/04/25 00:03:42;;;;;;;9.70;5.90;;;;;;;4.88;100.00;97702.91;4185326;28;20033;-72
2023/04/25 00:05:42;;;;;;;8.70;5.45;;;;;;;4.90;100.00;97706.09;4185186;28;20652;-72
2023/04/25 00:07:43;;;;;;;7.22;5.13;;;;;;;4.93;100.00;97700.69;4183459;28;20056;-72
2023/04/25 00:09:44;;;;;;;7.22;5.18;;;;;;;4.90;100.00;97701.41;4182333;28;20469;-72
2023/04/25 00:11:45;;;;;;;5.75;4.75;;;;;;;4.88;100.00;97702.91;4185302;28;20048;-72
2023/04/25 00:13:46;;;;;;;9.27;4.97;;;;;;;4.90;100.00;97703.34;4179468;28;20029;-72
2023/04/25 00:15:47;;;;;;;8.95;5.47;;;;;;;4.88;100.00;97697.41;4182803;28;20033;-72
2023/04/25 00:17:48;;;;;;;8.50;5.97;;;;;;;4.91;100.00;97708.47;4182968;28;20041;-72
2023/04/25 00:19:49;;;;;;;8.45;5.43;;;;;;;4.91;100.00;97703.00;4179576;28;20045;-72
2023/04/25 00:21:50;;;;;;;8.80;5.38;;;;;;;4.87;100.00;97699.34;4184805;28;20451;-72
2023/04/25 00:23:50;;;;;;;9.70;5.43;;;;;;;4.86;100.00;97697.78;4184530;28;20142;-72
2023/04/25 00:25:50;;;;;;;10.90;6.22;;;;;;;4.91;100.00;97699.44;4181389;28;20052;-72
2023/04/25 00:27:51;;;;;;;7.07;5.15;;;;;;;4.89;100.00;97696.28;4182970;28;20057;-73
2023/04/25 00:29:51;;;;;;;7.72;5.75;;;;;;;4.85;100.00;97696.19;4179365;28;20067;-73
2023/04/25 00:31:51;;;;;;;7.28;5.10;;;;;;;4.84;100.00;97694.59;4185814;28;20095;-73
2023/04/25 00:33:53;;;;;;;8.13;5.13;;;;;;;4.83;100.00;97694.97;4178996;28;20045;-72
2023/04/25 00:35:53;;;;;;;9.23;5.50;;;;;;;4.80;100.00;97693.75;4183997;28;20041;-72
2023/04/25 00:37:54;;;;;;;7.38;5.30;;;;;;;4.79;100.00;97689.41;4181902;28;20044;-72
2023/04/25 00:39:55;;;;;;;7.07;4.78;;;;;;;4.79;100.00;97692.13;4182963;28;20113;-72
2023/04/25 00:41:57;;;;;;;10.85;5.85;;;;;;;4.69;100.00;97698.19;4182346;28;20041;-72
2023/04/25 00:44:00;;;;;;;8.27;5.35;;;;;;;4.61;100.00;97694.50;4180518;28;20362;-72
2023/04/25 00:46:00;;;;;;;;;;;;;;;4.55;100.00;97695.94;4182374;28;20125;-72
2023/04/25 00:48:01;;;;;;;7.57;5.00;;;;;;;4.52;100.00;97691.16;4183642;28;19912;-72
2023/04/25 00:50:02;;;;;;;7.45;5.47;;;;;;;4.48;100.00;97691.09;4182804;28;20021;-72
2023/04/25 00:52:03;;;;;;;7.57;5.03;;;;;;;4.45;100.00;97691.00;4178521;28;20068;-72
2023/04/25 00:54:04;;;;;;;6.72;5.10;;;;;;;4.46;100.00;97695.31;4183438;28;20553;-72
2023/04/25 00:56:05;;;;;;;9.57;5.53;;;;;;;4.48;100.00;97688.34;4183494;28;20198;-72
2023/04/25 00:58:06;;;;;;;8.33;4.87;;;;;;;4.53;100.00;97689.22;4182549;28;20353;-72
2023/04/25 01:00:09;;;;;;;9.68;5.28;;;;;;;4.56;100.00;97694.78;4187697;28;20071;-72
2023/04/25 01:02:09;;;;;;;6.68;5.28;;;;;;;4.55;100.00;97692.38;4173386;28;20025;-72
2023/04/25 01:04:10;;;;;;;6.30;4.88;;;;;;;4.51;100.00;97700.53;4183052;28;20484;-72
2023/04/25 01:06:10;;;;;;;7.78;5.22;;;;;;;4.46;100.00;97689.84;4179674;28;20460;-72
2023/04/25 01:08:11;;;;;;;7.50;5.07;;;;;;;4.41;100.00;97690.13;4181850;28;20090;-72
2023/04/25 01:10:11;;;;;;;7.82;4.97;;;;;;;4.38;100.00;97699.06;4182068;28;20450;-72
2023/04/25 01:12:12;;;;;;;7.45;4.93;;;;;;;4.40;100.00;97692.09;4183455;28;20028;-72
2023/04/25 01:14:13;;;;;;;7.68;5.10;;;;;;;4.39;100.00;97693.25;4181129;28;20037;-72
2023/04/25 01:16:13;;;;;;;9.35;5.20;;;;;;;4.27;100.00;97695.28;4187508;28;20056;-72
2023/04/25 01:18:14;;;;;;;10.48;6.28;;;;;;;4.22;100.00;97701.84;4180665;28;20476;-72
2023/04/25 01:20:15;;;;;;;9.55;4.88;;;;;;;4.15;100.00;97704.41;4184242;28;20060;-72
2023/04/25 01:22:15;;;;;;;8.23;5.90;;;;;;;4.15;100.00;97696.19;4181113;28;20356;-72
2023/04/25 01:24:15;;;;;;;8.52;5.00;;;;;;;4.12;100.00;97694.94;4181959;28;20388;-72
2023/04/25 01:26:16;;;;;;;9.73;5.57;;;;;;;4.12;100.00;97697.66;4176380;28;20044;-72
2023/04/25 01:28:17;;;;;;;9.27;5.53;;;;;;;4.09;100.00;97695.66;4182397;28;20046;-72
2023/04/25 01:30:17;;;;;;;9.07;5.72;;;;;;;4.05;100.00;97699.44;4178497;28;20086;-72
2023/04/25 01:32:19;;;;;;;8.75;5.90;;;;;;;3.90;100.00;97698.31;4179929;28;20424;-72
2023/04/25 01:34:20;;;;;;;7.72;5.35;;;;;;;3.82;100.00;97704.75;4180431;28;20025;-72
2023/04/25 01:36:21;;;;;;;7.05;4.88;;;;;;;3.78;100.00;97696.44;4185759;28;20054;-72
2023/04/25 01:38:22;;;;;;;9.38;5.22;;;;;;;3.70;100.00;97688.41;4179611;28;20045;-72
2023/04/25 01:40:24;;;;;;;8.35;6.07;;;;;;;3.66;100.00;97689.13;4182092;28;20536;-72
2023/04/25 01:42:24;;;;;;;7.03;5.57;;;;;;;3.71;100.00;97693.50;4175641;28;20393;-72
2023/04/25 01:44:25;;;;;;;7.97;5.53;;;;;;;3.76;100.00;97698.75;4177625;28;20041;-72
2023/04/25 01:46:27;;;;;;;8.00;5.30;;;;;;;3.83;100.00;97700.88;4185472;28;20072;-72
2023/04/25 01:48:27;;;;;;;8.07;4.93;;;;;;;3.88;100.00;97698.63;4181549;28;20103;-72
2023/04/25 01:50:29;;;;;;;5.82;4.85;;;;;;;3.97;100.00;97700.41;4182552;28;20029;-72
2023/04/25 01:52:29;;;;;;;10.02;4.93;;;;;;;4.02;100.00;97700.16;4179049;28;20435;-72
2023/04/25 01:54:30;;;;;;;7.72;5.15;;;;;;;3.99;100.00;97698.94;4183216;28;20065;-72
2023/04/25 01:56:31;;;;;;;8.43;5.25;;;;;;;3.91;100.00;97700.69;4184906;28;20079;-72
2023/04/25 01:58:32;;;;;;;9.90;5.20;;;;;;;3.86;100.00;97695.47;4182882;28;20419;-72
2023/04/25 02:00:32;;;;;;;10.07;6.25;;;;;;;3.76;100.00;97697.94;4182424;28;20045;-72
2023/04/25 02:02:32;;;;;;;8.23;4.90;;;;;;;3.64;100.00;97702.34;4181624;28;20052;-72
2023/04/25 02:04:33;;;;;;;8.95;5.28;;;;;;;3.55;100.00;97706.38;4182812;28;20036;-72
2023/04/25 02:06:33;;;;;;;7.07;5.45;;;;;;;3.47;100.00;97707.34;4180033;28;20041;-72
2023/04/25 02:08:33;;;;;;;9.13;5.47;;;;;;;3.42;100.00;97707.59;4183366;28;20047;-72
2023/04/25 02:10:34;;;;;;;11.00;5.35;;;;;;;3.39;100.00;97706.34;4181348;28;20579;-72
2023/04/25 02:12:35;;;;;;;7.75;5.28;;;;;;;3.39;100.00;97698.13;4179024;28;20508;-72
2023/04/25 02:14:36;;;;;;;8.70;5.47;;;;;;;3.42;100.00;97700.19;4184810;28;20032;-72
2023/04/25 02:16:36;;;;;;;8.57;5.88;;;;;;;3.42;100.00;97702.13;4177158;28;20041;-72
2023/04/25 02:18:37;;;;;;;8.75;4.95;;;;;;;3.48;100.00;97698.81;4180542;28;20072;-72
2023/04/25 02:20:37;;;;;;;11.25;5.38;;;;;;;3.48;100.00;97706.22;4181213;28;20417;-72
2023/04/25 02:22:38;;;;;;;8.75;5.80;;;;;;;3.55;100.00;97704.44;4181241;28;20127;-72
2023/04/25 02:24:38;;;;;;;8.07;5.00;;;;;;;3.60;100.00;97709.66;4183025;28;20041;-72
2023/04/25 02:26:39;;;;;;;8.50;5.57;;;;;;;3.55;100.00;97707.16;4176615;28;20052;-72
2023/04/25 02:28:39;;;;;;;7.80;5.57;;;;;;;3.54;100.00;97711.06;4181304;28;20103;-72
2023/04/25 02:30:40;;;;;;;8.57;5.13;;;;;;;3.50;100.00;97712.13;4180360;28;20091;-72
2023/04/25 02:32:41;;;;;;;7.90;5.40;;;;;;;3.47;100.00;97708.13;4177572;28;20444;-72
2023/04/25 02:34:41;;;;;;;9.32;5.32;;;;;;;3.45;100.00;97707.69;4181791;28;20133;-72
2023/04/25 02:36:41;;;;;;;7.25;5.13;;;;;;;3.44;100.00;97703.38;4184878;28;20399;-72
2023/04/25 02:38:42;;;;;;;8.75;5.25;;;;;;;3.41;100.00;97703.28;4185174;28;20115;-72
2023/04/25 02:40:42;;;;;;;8.88;5.80;;;;;;;3.37;100.00;97706.69;4184507;28;20366;-72
2023/04/25 02:42:42;;;;;;;7.65;5.43;;;;;;;3.38;100.00;97710.22;4187830;28;20393;-72
2023/04/25 02:44:43;;;;;;;8.35;5.75;;;;;;;3.37;100.00;97708.63;4183916;28;20044;-72
2023/04/25 02:46:43;;;;;;;8.13;5.63;;;;;;;3.31;100.00;97710.84;4184558;28;20059;-72
2023/04/25 02:48:43;;;;;;;8.35;5.53;;;;;;;3.32;100.00;97700.72;4189755;28;20055;-72
2023/04/25 02:50:44;;;;;;;9.50;5.88;;;;;;;3.31;100.00;97705.38;4180591;28;20037;-72
2023/04/25 02:52:45;;;;;;;7.63;4.95;;;;;;;3.27;100.00;97706.41;4181139;28;20037;-72
2023/04/25 02:54:46;;;;;;;8.23;5.40;;;;;;;3.25;100.00;97704.03;4184418;28;20068;-72
2023/04/25 02:56:46;;;;;;;7.65;5.68;;;;;;;3.22;100.00;97699.25;4183998;28;20053;-72
2023/04/25 02:58:46;;;;;;;9.40;6.00;;;;;;;3.29;100.00;97704.13;4179144;28;20045;-71
2023/04/25 03:00:46;;;;;;;8.27;5.20;;;;;;;3.34;100.00;97699.19;4184126;28;20085;-72
2023/04/25 03:02:47;;;;;;;8.45;5.50;;;;;;;3.37;100.00;97703.97;4183336;28;20366;-72
2023/04/25 03:04:47;;;;;;;9.90;6.22;;;;;;;3.45;100.00;97696.75;4184786;28;20103;-72
2023/04/25 03:06:48;;;;;;;9.18;5.15;;;;;;;3.50;100.00;97691.03;4182910;28;20132;-72
2023/04/25 03:08:48;;;;;;;8.23;5.00;;;;;;;3.53;100.00;97695.00;4177223;28;20485;-72
2023/04/25 03:10:51;;;;;;;8.18;4.60;;;;;;;3.59;100.00;97693.59;4183703;28;20212;-72
2023/04/25 03:12:51;;;;;;;6.50;4.53;;;;;;;3.58;100.00;97694.75;4184634;28;20430;-72
2023/04/25 03:14:51;;;;;;;7.93;5.25;;;;;;;3.61;100.00;97691.31;4190483;28;20072;-72
2023/04/25 03:16:52;;;;;;;8.95;5.20;;;;;;;3.62;100.00;97701.09;4182488;28;20095;-72
2023/04/25 03:18:52;;;;;;;9.40;4.97;;;;;;;3.71;100.00;97701.72;4182571;28;20121;-72
2023/04/25 03:20:52;;;;;;;8.32;5.72;;;;;;;3.82;100.00;97694.59;4183810;28;20301;-72
2023/04/25 03:22:53;;;;;;;11.00;4.80;;;;;;;3.91;100.00;97702.63;4182821;28;20116;-72
2023/04/25 03:24:53;;;;;;;9.70;5.43;;;;;;;4.03;100.00;97704.47;4184921;28;20056;-72
2023/04/25 03:26:54;;;;;;;7.70;4.72;;;;;;;4.08;100.00;97705.00;4183306;28;20563;-72
2023/04/25 03:28:54;;;;;;;8.25;4.75;;;;;;;4.16;100.00;97706.78;4184870;28;20045;-72
2023/04/25 03:30:54;;;;;;;8.52;5.60;;;;;;;4.19;100.00;97695.09;4185592;28;20061;-71
2023/04/25 03:32:55;;;;;;;7.05;4.32;;;;;;;4.30;100.00;97700.03;4178073;28;20465;-71
2023/04/25 03:34:55;;;;;;;7.03;4.75;;;;;;;4.33;100.00;97700.13;4185466;28;20152;-71
2023/04/25 03:36:56;;;;;;;8.05;5.80;;;;;;;4.39;100.00;97697.94;4185778;28;20396;-71
2023/04/25 03:38:56;;;;;;;8.00;4.80;;;;;;;4.38;100.00;97699.84;4181373;28;20045;-71
2023/04/25 03:40:56;;;;;;;7.50;4.60;;;;;;;4.34;100.00;97695.44;4184973;28;20052;-71
2023/04/25 03:42:57;;;;;;;5.93;4.20;;;;;;;4.39;100.00;97692.44;4183762;28;20055;-71
2023/04/25 03:44:57;;;;;;;11.85;4.43;;;;;;;4.38;100.00;97691.63;4180394;28;20033;-72
2023/04/25 03:46:57;;;;;;;8.80;4.60;;;;;;;4.43;100.00;97690.56;4179693;28;20389;-72
2023/04/25 03:48:59;;;;;;;7.65;4.57;;;;;;;4.43;100.00;97696.84;4187205;28;20045;-72
2023/04/25 03:50:59;;;;;;;12.13;5.63;;;;;;;4.34;100.00;97693.50;4182242;28;20591;-72
2023/04/25 03:52:59;;;;;;;10.80;4.70;;;;;;;4.29;100.00;97698.44;4180121;28;20092;-72
2023/04/25 03:55:00;;;;;;;11.32;5.25;;;;;;;4.21;100.00;97702.97;4187567;28;20037;-72
2023/04/25 03:57:00;;;;;;;8.50;4.53;;;;;;;4.18;100.00;97701.72;4184803;28;20060;-72
2023/04/25 03:59:00;;;;;;;11.00;4.75;;;;;;;4.23;100.00;97708.91;4180120;28;20064;-72
2023/04/25 04:01:03;;;;;;;12.23;5.38;;;;;;;4.29;100.00;97710.19;4181173;28;20261;-72
2023/04/25 04:03:03;;;;;;;8.65;4.70;;;;;;;4.29;100.00;97714.88;4179896;28;20033;-72
2023/04/25 04:05:04;;;;;;;5.75;4.30;;;;;;;4.25;100.00;97714.81;4180301;28;20056;-72
2023/04/25 04:07:04;;;;;;;8.70;4.35;;;;;;;4.16;100.00;97715.00;4178242;28;20526;-72
2023/04/25 04:09:08;;;;;;;7.05;4.75;;;;;;;4.09;100.00;97714.03;4182565;28;20037;-72
2023/04/25 04:11:08;;;;;;;7.78;4.90;;;;;;;4.02;100.00;97716.56;4181153;28;20053;-72
2023/04/25 04:13:08;;;;;;;6.15;4.70;;;;;;;3.90;100.00;97712.78;4180241;28;20052;-72
2023/04/25 04:15:09;;;;;;;6.80;5.15;;;;;;;3.81;100.00;97720.38;4182086;28;20132;-72
2023/04/25 04:17:10;;;;;;;8.23;5.50;;;;;;;3.75;100.00;97723.72;4177691;28;20049;-72
2023/04/25 04:19:10;;;;;;;7.63;5.82;;;;;;;3.68;100.00;97710.66;4182653;28;20420;-72
2023/04/25 04:21:10;;;;;;;8.85;4.80;;;;;;;3.69;100.00;97712.22;4180892;28;20052;-72
2023/04/25 04:23:11;;;;;;;7.30;4.43;;;;;;;3.67;100.00;97703.59;4180311;28;20041;-72
2023/04/25 04:25:12;;;;;;;6.95;5.30;;;;;;;3.67;100.00;97709.06;4180617;28;20029;-72
2023/04/25 04:27:13;;;;;;;7.00;5.45;;;;;;;3.67;100.00;97709.06;4181708;28;20110;-72
2023/04/25 04:29:20;;;;;;;9.75;5.70;;;;;;;3.66;100.00;97715.69;4183278;28;20288;-72
2023/04/25 04:31:21;;;;;;;12.30;8.18;;;;;;;3.62;100.00;97722.97;4182102;28;20215;-72
2023/04/25 04:33:23;;;;;;;12.30;7.07;;;;;;;3.67;100.00;97725.47;4177931;28;20036;-72
2023/04/25 04:35:23;;;;;;;12.10;6.03;;;;;;;3.68;100.00;97718.84;4180282;28;20044;-72
2023/04/25 04:37:24;;;;;;;8.05;5.07;;;;;;;3.71;100.00;97720.88;4182768;28;20033;-72
2023/04/25 04:39:24;;;;;;;8.38;5.50;;;;;;;3.73;100.00;97726.81;4184479;28;20053;-72
2023/04/25 04:41:24;;;;;;;12.60;6.65;;;;;;;3.70;100.00;97716.56;4182444;28;20127;-72
2023/04/25 04:43:25;;;;;;;11.50;8.25;;;;;;;3.76;100.00;97728.03;4180524;28;20046;-72
2023/04/25 04:45:27;;;;;;;11.55;7.47;;;;;;;3.73;100.00;97720.53;4179888;28;20185;-72
2023/04/25 04:47:30;;;;;;;7.63;6.40;;;;;;;3.74;100.00;97714.72;4178533;28;20045;-72
2023/04/25 04:49:31;;;;;;;9.52;6.32;;;;;;;3.79;100.00;97719.91;4182078;28;20040;-72
2023/04/25 04:51:32;;;;;;;9.02;5.88;;;;;;;3.83;100.00;97709.88;4179448;28;20059;-72
2023/04/25 04:53:32;;;;;;;11.50;6.10;;;;;;;3.87;100.00;97708.00;4178982;28;20063;-72
2023/04/25 04:55:32;;;;;;;17.95;6.13;;;;;;;3.89;100.00;97704.94;4181143;28;20566;-72
2023/04/25 04:57:33;;;;;;;10.32;5.93;;;;;;;3.91;100.00;97722.59;4157590;28;20045;-72
2023/04/25 04:59:33;;;;;;;8.80;5.78;;;;;;;3.90;100.00;97717.47;4194300;28;20036;-72
2023/04/25 05:01:37;;;;;;;12.00;5.93;;;;;;;3.89;100.00;97724.88;4182943;28;20422;-72
2023/04/25 05:03:37;;;;;;;8.82;5.45;;;;;;;3.96;100.00;97729.72;4177710;28;20048;-72
2023/04/25 05:05:39;;;;;;;12.13;6.45;;;;;;;3.95;100.00;97736.34;4181792;28;20041;-72
2023/04/25 05:07:40;;;;;;;11.40;7.18;;;;;;;3.96;100.00;97735.19;4177662;28;20049;-72
2023/04/25 05:09:40;;;;;;;12.68;6.63;;;;;;;4.00;100.00;97741.56;4182315;28;20033;-72
2023/04/25 05:11:41;;;;;;;15.82;6.70;;;;;;;4.05;100.00;97744.03;4180169;28;20090;-72
2023/04/25 05:13:41;;;;;;;9.40;6.07;;;;;;;4.05;100.00;97743.22;4178818;28;20086;-72
2023/04/25 05:15:41;;;;;;;8.40;5.55;;;;;;;4.10;100.00;97742.97;4178573;28;20405;-72
2023/04/25 05:17:41;;;;;;;10.35;5.85;;;;;;;4.19;100.00;97754.53;4182606;28;20071;-72
2023/04/25 05:19:42;;;;;;;8.80;6.10;;;;;;;4.22;100.00;97751.13;4184310;28;20136;-72
2023/04/25 05:21:43;;;;;;;7.90;5.68;;;;;;;4.31;100.00;97762.69;4181610;28;20099;-72
2023/04/25 05:23:43;;;;;;;9.65;6.05;;;;;;;4.40;100.00;97757.03;4182742;28;20131;-72
2023/04/25 05:25:43;;;;;;;10.32;5.18;;;;;;;4.55;100.00;97758.13;4180340;28;20129;-72
2023/04/25 05:27:44;;;;;;;12.18;5.82;;;;;;;4.55;100.00;97753.47;4178229;28;20037;-72
2023/04/25 05:29:44;;;;;;;8.82;5.68;;;;;;;4.62;100.00;97769.25;4183161;28;20040;-72
2023/04/25 05:31:47;;;;;;;11.13;5.97;;;;;;;4.60;100.00;97763.34;4177384;28;20043;-72
2023/04/25 05:33:47;;;;;;;8.98;5.03;;;;;;;4.59;100.00;97762.56;4184227;28;20035;-72
2023/04/25 05:35:48;;;;;;;13.90;6.25;;;;;;;4.61;100.00;97764.94;4179682;28;20037;-72
2023/04/25 05:37:48;;;;;;;8.60;5.80;;;;;;;4.65;100.00;97765.84;4179029;28;20048;-72
2023/04/25 05:39:48;;;;;;;10.85;5.53;;;;;;;4.59;100.00;97762.56;4179699;28;20167;-72
2023/04/25 05:41:49;;;;;;;10.43;5.43;;;;;;;4.64;100.00;97762.28;4181179;28;20409;-71
2023/04/25 05:43:50;;;;;;;10.48;5.30;;;;;;;4.68;100.00;97754.94;4180951;28;20033;-72
2023/04/25 05:45:50;;;;;;;9.85;5.22;;;;;;;4.75;100.00;97762.53;4180304;28;20550;-72
2023/04/25 05:47:50;;;;;;;6.68;4.75;;;;;;;4.86;100.00;97771.78;4181831;28;20041;-72
2023/04/25 05:49:51;;;;;;;10.10;4.45;;;;;;;4.92;100.00;97769.56;4182562;28;20453;-72
2023/04/25 05:51:51;;;;;;;11.02;5.45;;;;;;;5.00;100.00;97765.84;4182066;28;20055;-72
2023/04/25 05:53:51;;;;;;;8.40;4.82;;;;;;;5.04;100.00;97772.16;4179193;28;20167;-72
2023/04/25 05:55:51;;;;;;;7.85;4.75;;;;;;;5.12;100.00;97778.59;4182782;28;20040;-72
2023/04/25 05:57:52;;;;;;;8.85;4.90;;;;;;;5.26;100.00;97774.22;4180804;28;20049;-70
2023/04/25 05:59:53;;;;;;;6.40;4.32;;;;;;;5.42;100.00;97776.09;4178916;28;20469;-71
2023/04/25 06:01:53;;;;;;;6.63;4.20;;;;;;;5.50;100.00;97780.59;4177922;28;20045;-70
2023/04/25 06:03:53;;;;;;;8.50;4.63;;;;;;;5.38;100.00;97795.25;4180864;28;20044;-71
2023/04/25 06:05:54;;;;;;;6.53;4.25;;;;;;;5.26;100.00;97789.88;4177320;28;20595;-71
2023/04/25 06:07:54;;;;;;;7.15;4.60;;;;;;;5.21;100.00;97788.25;4180078;28;20108;-71
2023/04/25 06:09:54;;;;;;;7.10;4.00;;;;;;;5.39;100.00;97790.56;4184789;28;20067;-71
2023/04/25 06:11:55;;;;;;;7.57;3.67;;;;;;;5.38;100.00;97798.00;4183454;28;20040;-71
2023/04/25 06:13:55;;;;;;;8.00;4.00;;;;;;;5.35;100.00;97791.25;4179154;28;20065;-71
2023/04/25 06:15:55;;;;;;;5.70;3.55;;;;;;;5.38;100.00;97800.75;4185040;28;20055;-71
2023/04/25 06:17:56;;;;;;;9.13;4.00;;;;;;;5.39;100.00;97793.31;4182999;28;20088;-71
2023/04/25 06:19:56;;;;;;;6.40;3.53;;;;;;;5.25;100.00;97797.31;4183103;28;20033;-71
2023/04/25 06:21:56;;;;;;;6.00;3.45;;;;;;;5.25;100.00;97789.09;4184430;28;20045;-71
2023/04/25 06:23:56;;;;;;;6.80;3.45;;;;;;;5.35;100.00;97796.75;4183857;28;20037;-71
2023/04/25 06:25:57;;;;;;;8.88;4.18;;;;;;;5.38;100.00;97792.50;4186033;28;20064;-71
2023/04/25 06:27:57;;;;;;;6.78;3.70;;;;;;;5.41;100.00;97791.00;4181539;28;20071;-71
2023/04/25 06:29:57;;;;;;;6.97;3.20;;;;;;;5.49;100.00;97796.25;4185493;28;20044;-71
2023/04/25 06:31:58;;;;;;;6.30;3.33;;;;;;;5.55;100.00;97797.56;4184381;28;20044;-71
2023/04/25 06:33:58;;;;;;;5.22;3.30;;;;;;;5.59;100.00;97801.16;4184150;28;20102;-71
2023/04/25 06:35:58;;;;;;;5.65;3.42;;;;;;;5.58;100.00;97802.31;4186494;28;20044;-71
2023/04/25 06:37:59;;;;;;;5.28;3.38;;;;;;;5.57;100.00;97798.00;4186163;28;20525;-71
2023/04/25 06:40:00;;;;;;;4.68;3.20;;;;;;;5.66;100.00;97810.69;4180486;28;20898;-71
2023/04/25 06:42:00;;;;;;;5.53;3.25;;;;;;;5.70;100.00;97806.84;4183331;28;20057;-71
2023/04/25 06:44:00;;;;;;;7.43;3.50;;;;;;;5.58;100.00;97809.75;4184206;28;20060;-71
2023/04/25 06:46:01;;;;;;;7.18;3.40;;;;;;;5.55;100.00;97802.25;4181835;28;20036;-71
2023/04/25 06:48:01;;;;;;;5.80;3.10;;;;;;;5.58;100.00;97804.28;4187415;28;20108;-71
2023/04/25 06:50:02;;;;;;;6.72;3.10;;;;;;;5.68;100.00;97802.91;4190849;28;20075;-71
2023/04/25 06:52:02;;;;;;;6.68;3.50;;;;;;;5.73;100.00;97806.16;4183071;28;20115;-71
2023/04/25 06:54:04;;;;;;;5.95;3.28;;;;;;;5.63;100.00;97815.75;4186497;28;20082;-71
2023/04/25 06:56:05;;;;;;;5.07;3.42;;;;;;;5.84;100.00;97812.63;4186215;28;20113;-71
2023/04/25 06:58:06;;;;;;;4.50;2.90;;;;;;;5.91;100.00;97809.25;4185607;28;20024;-72
2023/04/25 07:00:11;;;;;;;4.28;2.80;;;;;;;5.92;100.00;97813.59;4181520;28;20032;-71
2023/04/25 07:02:11;;;;;;;4.97;3.83;;;;;;;6.04;100.00;97812.63;4183915;28;20040;-71
2023/04/25 07:04:11;;;;;;;8.43;3.85;;;;;;;6.12;100.00;97815.16;4183319;28;20021;-72
2023/04/25 07:06:11;;;;;;;7.05;3.65;;;;;;;6.17;100.00;97822.28;4183911;28;20119;-71
2023/04/25 07:08:12;;;;;;;5.60;3.15;;;;;;;6.19;100.00;97818.00;4181449;28;20526;-71
2023/04/25 07:10:12;;;;;;;4.78;2.85;;;;;;;6.25;100.00;97821.25;4186089;28;20059;-71
2023/04/25 07:12:12;;;;;;;6.00;3.25;;;;;;;6.27;100.00;97824.44;4185716;28;20029;-72
2023/04/25 07:14:13;;;;;;;4.47;2.83;;;;;;;6.22;100.00;97823.97;4181982;28;20484;-71
2023/04/25 07:16:13;;;;;;;4.38;2.85;;;;;;;6.16;100.00;97829.75;4182636;28;20060;-71
2023/04/25 07:18:13;;;;;;;5.05;2.78;;;;;;;6.11;100.00;97821.00;4186891;28;20052;-71
2023/04/25 07:20:14;;;;;;;4.18;2.83;;;;;;;6.10;100.00;97822.94;4186658;28;20509;-71
2023/04/25 07:22:14;;;;;;;4.28;3.25;;;;;;;6.10;100.00;97822.94;4184247;28;20119;-72
2023/04/25 07:24:15;;;;;;;3.85;2.88;;;;;;;6.16;100.00;97823.47;4180748;28;20032;-71
2023/04/25 07:26:15;;;;;;;5.82;3.33;;;;;;;6.02;100.00;97825.94;4187460;28;20479;-71
2023/04/25 07:28:15;;;;;;;6.22;3.10;;;;;;;6.10;100.00;97824.91;4183490;28;20028;-71
2023/04/25 07:30:16;;;;;;;4.18;3.28;;;;;;;6.11;100.00;97824.53;4183935;28;20033;-71
2023/04/25 07:32:16;;;;;;;7.10;3.17;;;;;;;5.98;100.00;97827.84;4184504;28;20116;-71
2023/04/25 07:34:16;;;;;;;4.55;3.05;;;;;;;6.00;100.00;97836.50;4177694;28;20020;-71
2023/04/25 07:36:17;;;;;;;5.00;3.10;;;;;;;6.13;100.00;97832.44;4185383;28;20093;-71
2023/04/25 07:38:17;;;;;;;5.82;3.20;;;;;;;6.17;100.00;97827.78;4183122;28;20167;-71
2023/04/25 07:40:17;;;;;;;6.30;3.17;;;;;;;6.29;100.00;97829.56;4181958;28;20033;-71
2023/04/25 07:42:18;;;;;;;4.80;3.70;;;;;;;6.26;100.00;97838.53;4184590;28;20107;-71
2023/04/25 07:44:18;;;;;;;5.78;3.50;;;;;;;6.34;100.00;97834.75;4183619;28;20527;-71
2023/04/25 07:46:18;;;;;;;4.95;2.97;;;;;;;6.26;100.00;97827.56;4183738;28;20024;-71
2023/04/25 07:48:19;;;;;;;5.30;3.03;;;;;;;6.26;100.00;97831.09;4183027;28;20025;-71
2023/04/25 07:50:19;;;;;;;6.90;3.97;;;;;;;6.32;100.00;97839.84;4184399;28;20048;-71
2023/04/25 07:52:20;;;;;;;15.25;6.72;;;;;;;6.29;100.00;97846.03;4179759;28;20041;-71
2023/04/25 07:54:21;;;;;;;13.23;5.10;;;;;;;6.37;100.00;97853.25;4185281;28;20222;-71
2023/04/25 07:56:21;;;;;;;4.88;3.35;;;;;;;6.34;100.00;97848.50;4183697;28;20504;-71
2023/04/25 07:58:21;;;;;;;6.45;2.80;;;;;;;6.26;100.00;97857.78;4182958;28;20083;-71
2023/04/25 08:00:22;;;;;;;4.60;3.25;;;;;;;6.26;100.00;97853.06;4184065;28;20065;-71
2023/04/25 08:02:22;;;;;;;6.22;3.00;;;;;;;6.35;100.00;97855.56;4182813;28;20088;-71
2023/04/25 08:04:23;;;;;;;5.88;2.97;;;;;;;6.29;100.00;97859.78;4182549;28;20374;-71
2023/04/25 08:06:23;;;;;;;6.38;3.45;;;;;;;6.30;100.00;97862.19;4180527;28;20053;-71
2023/04/25 08:08:24;;;;;;;4.68;3.13;;;;;;;6.19;100.00;97869.41;4180881;28;20037;-71
2023/04/25 08:10:24;;;;;;;4.45;3.40;;;;;;;6.18;100.00;97873.31;4184010;28;20053;-71
2023/04/25 08:12:24;;;;;;;4.40;2.83;;;;;;;6.02;100.00;97881.66;4180753;28;20040;-71
2023/04/25 08:14:25;;;;;;;4.95;3.47;;;;;;;6.00;100.00;97875.72;4183723;28;20451;-71
2023/04/25 08:16:25;;;;;;;6.03;3.15;;;;;;;6.02;100.00;97876.16;4184798;28;20532;-71
2023/04/25 08:18:25;;;;;;;5.30;3.60;;;;;;;5.98;100.00;97888.25;4184661;28;20040;-71
2023/04/25 08:20:26;;;;;;;6.45;3.58;;;;;;;6.03;100.00;97893.41;4180292;28;20500;-71
2023/04/25 08:22:28;;;;;;;7.75;4.60;;;;;;;6.04;100.00;97889.50;4186740;28;20083;-71
2023/04/25 08:24:29;;;;;;;6.30;3.72;;;;;;;6.04;100.00;97897.75;4183534;28;20044;-71
2023/04/25 08:26:29;;;;;;;6.40;3.88;;;;;;;5.99;100.00;97901.59;4181503;28;20357;-71
2023/04/25 08:28:30;;;;;;;7.47;4.38;;;;;;;5.86;100.00;97897.38;4181339;28;20502;-71
2023/04/25 08:30:30;;;;;;;6.55;3.92;;;;;;;5.94;100.00;97912.06;4182858;28;20040;-71
2023/04/25 08:32:31;;;;;;;8.50;4.38;;;;;;;5.90;100.00;97906.50;4179855;28;20032;-71
2023/04/25 08:34:31;;;;;;;6.45;3.80;;;;;;;5.89;100.00;97907.66;4183229;28;20139;-71
2023/04/25 08:36:32;;;;;;;5.53;3.50;;;;;;;5.76;100.00;97908.94;4187616;28;20083;-71
2023/04/25 08:38:33;;;;;;;7.07;4.13;;;;;;;5.89;100.00;97905.69;4184193;28;20060;-71
2023/04/25 08:40:37;;;;;;;5.88;4.03;;;;;;;6.04;100.00;97917.81;4181500;28;20063;-71
2023/04/25 08:42:38;;;;;;;11.65;5.43;;;;;;;6.07;100.00;97916.28;4181249;28;20039;-71
2023/04/25 08:44:38;;;;;;;8.23;5.40;;;;;;;6.18;100.00;97923.56;4184626;28;20306;-71
2023/04/25 08:46:40;;;;;;;8.38;4.30;;;;;;;6.21;100.00;97924.81;4179814;28;20110;-71
2023/04/25 08:48:42;;;;;;;7.15;4.72;;;;;;;6.23;100.00;97924.44;4183550;28;20855;-71
2023/04/25 08:50:50;;;;;;;6.97;4.17;;;;;;;6.25;100.00;97924.88;4182121;28;20457;-71
2023/04/25 08:52:53;;;;;;;11.65;5.28;;;;;;;6.22;100.00;97933.84;4181727;28;20282;-71
2023/04/25 08:54:54;;;;;;;8.50;3.92;;;;;;;6.12;100.00;97937.94;4180644;28;20037;-71
2023/04/25 08:56:57;;;;;;;10.60;6.20;;;;;;;6.14;100.00;97936.44;4183530;28;20072;-71
2023/04/25 08:58:58;;;;;;;11.45;8.43;;;;;;;6.07;100.00;97946.50;4183185;28;20052;-71
2023/04/25 09:00:59;;;;;;;8.93;4.10;;;;;;;5.84;100.00;97947.16;4181278;28;20045;-71
2023/04/25 09:03:00;;;;;;;5.80;3.58;;;;;;;6.04;100.00;97948.00;4180996;28;20628;-71
2023/04/25 09:05:00;;;;;;;7.75;4.60;;;;;;;6.21;100.00;97952.28;4182720;28;20047;-71
2023/04/25 09:07:00;;;;;;;5.55;3.92;;;;;;;6.26;100.00;97954.72;4183354;28;20443;-71
2023/04/25 09:09:06;;;;;;;7.10;4.07;;;;;;;6.25;100.00;97957.81;4180277;28;20080;-71
2023/04/25 09:11:07;;;;;;;5.80;3.65;;;;;;;6.36;100.00;97964.31;4181758;28;20039;-71
2023/04/25 09:13:14;;;;;;;6.07;3.45;;;;;;;6.39;100.00;97967.16;4181316;28;20045;-71
2023/04/25 09:15:15;;;;;;;4.07;2.92;;;;;;;6.46;100.00;97972.00;4179236;28;20574;-71
2023/04/25 09:17:17;;;;;;;5.90;2.85;;;;;;;6.34;100.00;97972.94;4185946;28;20052;-71
2023/04/25 09:19:22;;;;;;;4.60;2.90;;;;;;;6.14;100.00;97974.09;4182100;28;20044;-71
2023/04/25 09:21:22;;;;;;;5.95;2.75;;;;;;;6.15;100.00;97973.75;4181388;28;20048;-71
2023/04/25 09:23:23;;;;;;;5.13;3.33;;;;;;;6.24;100.00;97969.97;4178555;28;20115;-71
2023/04/25 09:25:25;;;;;;;4.28;2.58;;;;;;;6.22;100.00;97983.28;4181878;28;20466;-71
2023/04/25 09:27:26;;;;;;;3.20;2.42;;;;;;;5.92;100.00;98000.31;4183210;28;20076;-71